Aviation Digital Data Service (ADDS)

Output produced by METARs form (0433 UTC 24 January 2019)
found at http://www.aviationweather.gov/metar/data/
 
Forecast for: NCRG (RAROTONGA COOK I, WS)
Text: TAF NCRG 232301Z 2400/2424 03015G25KT 9999 -SHRA SCT004 BKN015 OVC090
Forecast period: 0000 UTC 24 January 2019 to 0000 UTC 25 January 2019
Forecast type: FROM: standard forecast or significant change
Winds: from the NNE (30 degrees) at 17 MPH (15 knots; 7.7 m/s)
gusting to 29 MPH (25 knots; 12.9 m/s)
Visibility: 6 or more miles 10+ km)
Ceiling: 1500 feet AGL
Clouds: scattered clouds at 400 feet AGL
broken clouds at 1500 feet AGL
overcast cloud deck at 9000 feet AGL
Weather: -SHRA  (light rain showers)
Text: TEMPO 2400/2424 02020G30KT 3000 TSRA BKN015 FEW018CB
Forecast period: 0000 UTC 24 January 2019 to 0000 UTC 25 January 2019
Forecast type: TEMPORARY: The following changes expected for less than half the time period
Winds: from the NNE (20 degrees) at 23 MPH (20 knots; 10.3 m/s)
gusting to 34 MPH (30 knots; 15.4 m/s)
Visibility: 1.86 miles (2.99 km)
Ceiling: 1500 feet AGL
Clouds: broken clouds at 1500 feet AGL
few clouds at 1800 feet AGL
Weather: TSRA  (rain associated with thunderstorm(s))